createdAt,value
2019-04-21T00:01:00.433Z,34.20
2019-04-21T00:03:34.489Z,28.83
2019-04-21T00:06:18.402Z,31.20
2019-04-21T00:08:50.580Z,28.10
2019-04-21T00:11:22.539Z,28.25
2019-04-21T00:13:51.424Z,34.67
2019-04-21T00:16:07.497Z,31.05
2019-04-21T00:18:51.932Z,31.80
2019-04-21T00:21:24.361Z,34.92
2019-04-21T00:24:01.556Z,36.35
2019-04-21T00:26:33.444Z,34.05
2019-04-21T00:29:11.368Z,31.85
2019-04-21T00:31:33.916Z,28.35
2019-04-21T00:33:50.118Z,34.83
2019-04-21T00:36:25.943Z,35.30
2019-04-21T00:39:23.272Z,29.90
2019-04-21T00:41:47.063Z,31.15
2019-04-21T00:44:04.755Z,37.65
2019-04-21T00:46:41.270Z,35.10
2019-04-21T00:49:23.326Z,35.10
2019-04-21T00:52:29.093Z,32.40
2019-04-21T00:57:35.695Z,32.50
2019-04-21T01:00:04.458Z,33.42
2019-04-21T01:02:29.718Z,36.10
2019-04-21T01:05:00.134Z,30.10
2019-04-21T01:07:31.384Z,33.25
2019-04-21T01:09:54.067Z,31.73
2019-04-21T01:12:33.122Z,37.30
2019-04-21T01:15:04.216Z,34.30
2019-04-21T01:17:38.541Z,31.50
2019-04-21T01:19:57.482Z,30.55
2019-04-21T01:22:13.512Z,35.40
2019-04-21T01:24:46.869Z,37.45
2019-04-21T01:27:27.530Z,31.73
2019-04-21T01:30:07.225Z,32.38
2019-04-21T01:32:37.419Z,34.23
2019-04-21T01:37:57.760Z,33.38
2019-04-21T01:40:29.787Z,38.88
2019-04-21T01:42:55.703Z,33.80
2019-04-21T01:45:27.746Z,33.83
2019-04-21T01:48:03.576Z,35.65
2019-04-21T01:50:28.963Z,32.60
2019-04-21T01:53:11.114Z,31.97
2019-04-21T01:56:11.750Z,31.55
2019-04-21T01:58:36.293Z,34.30
2019-04-21T02:01:21.657Z,31.65
2019-04-21T02:03:52.930Z,34.65
2019-04-21T02:06:21.316Z,35.33
2019-04-21T02:08:48.777Z,34.88
2019-04-21T02:11:24.510Z,32.30
2019-04-21T02:13:59.177Z,37.50
2019-04-21T02:16:24.875Z,35.73
2019-04-21T02:18:54.582Z,36.55
2019-04-21T02:21:21.781Z,34.25
2019-04-21T02:24:05.358Z,38.28
2019-04-21T02:26:36.185Z,36.60
2019-04-21T02:29:01.941Z,38.33
2019-04-21T02:34:27.570Z,36.85
2019-04-21T02:42:33.019Z,41.15
2019-04-21T02:45:00.361Z,37.78
2019-04-21T02:47:43.152Z,47.55
2019-04-21T02:52:35.541Z,47.58
2019-04-21T02:55:17.966Z,41.28
2019-04-21T02:57:49.432Z,48.58
2019-04-21T03:05:50.506Z,39.63
2019-04-21T03:08:36.287Z,46.95
2019-04-21T03:13:21.885Z,44.60
2019-04-21T03:18:30.230Z,33.28
2019-04-21T03:20:54.986Z,38.95
2019-04-21T03:23:31.837Z,40.95
2019-04-21T03:25:51.999Z,35.92
2019-04-21T03:34:15.619Z,35.17
2019-04-21T03:36:41.360Z,35.20
2019-04-21T03:38:42.904Z,31.25
2019-04-21T03:41:23.651Z,30.55
2019-04-21T03:43:54.333Z,32.53
2019-04-21T03:46:16.474Z,31.37
2019-04-21T03:51:21.435Z,33.75
2019-04-21T03:53:46.271Z,35.68
2019-04-21T04:11:15.134Z,31.10
2019-04-21T04:13:49.741Z,32.65
2019-04-21T04:16:06.129Z,31.30
2019-04-21T04:19:34.422Z,35.23
2019-04-21T04:24:57.965Z,29.65
2019-04-21T04:27:24.773Z,33.20
2019-04-21T04:29:39.753Z,27.37
2019-04-21T04:32:05.809Z,29.67
2019-04-21T04:34:51.569Z,28.95
2019-04-21T04:42:45.598Z,30.32
2019-04-21T04:45:15.015Z,31.48
2019-04-21T04:51:20.688Z,28.12
2019-04-21T04:53:47.485Z,31.52
2019-04-21T04:56:31.548Z,29.70
2019-04-21T04:59:22.640Z,27.20
2019-04-21T05:04:10.337Z,27.30
2019-04-21T05:06:53.913Z,30.05
2019-04-21T05:16:54.908Z,30.35
2019-04-21T05:19:20.975Z,25.40
2019-04-21T05:21:40.546Z,23.83
2019-04-21T05:24:01.236Z,22.73
2019-04-21T05:26:41.943Z,27.90
2019-04-21T05:29:08.139Z,22.07
2019-04-21T05:36:04.767Z,27.80
2019-04-21T05:38:47.747Z,26.62
2019-04-21T05:41:10.055Z,21.90
2019-04-21T05:43:56.508Z,23.67
2019-04-21T05:46:26.135Z,18.82
2019-04-21T05:49:06.827Z,21.20
2019-04-21T05:51:30.344Z,23.12
2019-04-21T05:54:10.558Z,17.48
2019-04-21T05:56:36.530Z,21.10
2019-04-21T05:59:08.996Z,22.27
2019-04-21T06:01:47.076Z,15.80
2019-04-21T06:04:16.899Z,16.00
2019-04-21T06:06:53.182Z,16.67
2019-04-21T06:09:14.525Z,13.93
2019-04-21T06:11:42.442Z,14.07
2019-04-21T06:14:16.859Z,12.30
2019-04-21T06:16:48.020Z,14.73
2019-04-21T06:19:22.541Z,11.25
2019-04-21T06:21:45.436Z,11.35
2019-04-21T06:24:25.124Z,10.65
2019-04-21T06:27:08.227Z,13.03
2019-04-21T06:29:23.777Z,11.03
2019-04-21T06:35:52.903Z,9.90
2019-04-21T06:38:10.443Z,10.63
2019-04-21T06:40:42.286Z,8.88
2019-04-21T06:43:17.944Z,9.13
2019-04-21T06:46:10.889Z,10.18
2019-04-21T06:48:37.523Z,10.95
2019-04-21T06:51:10.712Z,8.05
2019-04-21T06:53:39.746Z,9.55
2019-04-21T06:56:21.799Z,9.05
2019-04-21T06:58:37.027Z,10.48
2019-04-21T07:01:09.159Z,9.05
2019-04-21T07:03:42.461Z,11.55
2019-04-21T07:06:12.617Z,8.33
2019-04-21T07:08:46.210Z,9.28
2019-04-21T07:11:08.688Z,8.78
2019-04-21T07:13:36.584Z,7.70
2019-04-21T07:16:19.153Z,7.83
2019-04-21T07:19:01.083Z,7.87
2019-04-21T07:21:29.981Z,6.85
2019-04-21T07:24:27.568Z,6.83
2019-04-21T07:27:00.232Z,7.45
2019-04-21T07:29:28.307Z,7.35
2019-04-21T07:32:01.826Z,7.65
2019-04-21T07:34:33.708Z,6.90
2019-04-21T07:39:28.120Z,7.12
2019-04-21T07:41:53.874Z,6.25
2019-04-21T07:44:24.278Z,6.47
2019-04-21T07:46:54.003Z,7.72
2019-04-21T07:49:50.029Z,7.60
2019-04-21T07:52:28.243Z,9.15
2019-04-21T07:55:05.631Z,10.32
2019-04-21T07:57:19.029Z,7.20
2019-04-21T08:00:11.956Z,8.18
2019-04-21T08:02:28.118Z,11.83
2019-04-21T08:05:05.919Z,7.83
2019-04-21T08:07:32.358Z,7.22
2019-04-21T08:09:57.130Z,6.05
2019-04-21T08:12:25.612Z,8.03
2019-04-21T08:15:11.263Z,17.52
2019-04-21T08:17:31.850Z,8.28
2019-04-21T08:20:00.273Z,6.75
2019-04-21T08:22:34.919Z,7.62
2019-04-21T08:25:03.219Z,7.45
2019-04-21T08:27:40.388Z,8.70
2019-04-21T08:30:04.957Z,6.78
2019-04-21T08:32:44.431Z,6.97
2019-04-21T08:35:34.370Z,7.47
2019-04-21T08:37:39.666Z,8.75
2019-04-21T08:40:10.518Z,7.80
2019-04-21T08:42:40.002Z,7.72
2019-04-21T08:45:10.734Z,8.13
2019-04-21T08:47:40.075Z,8.53
2019-04-21T08:50:08.482Z,7.42
2019-04-21T08:55:20.045Z,7.75
2019-04-21T08:58:34.046Z,8.13
2019-04-21T09:00:55.034Z,7.65
2019-04-21T09:03:42.997Z,8.95
2019-04-21T09:06:19.851Z,7.03
2019-04-21T09:08:39.307Z,7.78
2019-04-21T09:11:20.423Z,7.97
2019-04-21T09:13:50.757Z,6.55
2019-04-21T09:16:15.430Z,6.80
2019-04-21T09:18:48.696Z,5.92
2019-04-21T09:21:28.167Z,6.10
2019-04-21T09:23:54.302Z,7.75
2019-04-21T09:26:26.387Z,5.60
2019-04-21T09:28:48.193Z,8.05
2019-04-21T09:31:08.974Z,4.40
2019-04-21T09:33:45.214Z,4.17
2019-04-21T09:36:14.352Z,4.37
2019-04-21T09:38:42.493Z,4.25
2019-04-21T09:41:15.503Z,6.30
2019-04-21T09:43:48.376Z,5.15
2019-04-21T09:46:14.174Z,4.62
2019-04-21T09:48:52.822Z,5.50
2019-04-21T09:51:15.525Z,7.15
2019-04-21T09:53:54.587Z,4.08
2019-04-21T09:56:19.582Z,4.72
2019-04-21T09:58:50.371Z,4.50
2019-04-21T10:01:22.784Z,3.77
2019-04-21T10:03:53.291Z,4.87
2019-04-21T10:06:24.248Z,5.00
2019-04-21T10:08:58.675Z,5.60
2019-04-21T10:11:24.580Z,5.15
2019-04-21T10:13:53.614Z,6.12
2019-04-21T10:16:42.862Z,5.65
2019-04-21T10:19:13.087Z,5.33
2019-04-21T10:21:42.441Z,4.93
2019-04-21T10:24:12.530Z,4.60
2019-04-21T10:26:41.532Z,4.03
2019-04-21T10:29:19.800Z,5.10
2019-04-21T10:31:42.813Z,5.33
2019-04-21T10:34:13.414Z,4.73
2019-04-21T10:36:42.988Z,4.10
2019-04-21T10:39:13.567Z,5.25
2019-04-21T10:41:43.512Z,4.47
2019-04-21T10:44:13.584Z,3.90
2019-04-21T10:46:42.841Z,4.20
2019-04-21T10:49:13.299Z,4.93
2019-04-21T10:52:47.065Z,7.87
2019-04-21T10:55:32.147Z,3.27
2019-04-21T10:58:04.683Z,5.17
2019-04-21T11:00:34.365Z,7.10
2019-04-21T11:03:22.639Z,3.67
2019-04-21T11:05:52.620Z,4.27
2019-04-21T11:08:28.588Z,4.40
2019-04-21T11:10:52.404Z,7.80
2019-04-21T11:13:22.930Z,4.27
2019-04-21T11:15:52.981Z,4.53
2019-04-21T11:18:21.996Z,4.10
2019-04-21T11:20:51.187Z,3.77
2019-04-21T11:23:22.409Z,3.57
2019-04-21T11:25:51.701Z,3.50
2019-04-21T11:28:20.752Z,3.43
2019-04-21T11:30:50.985Z,2.73
2019-04-21T11:33:21.317Z,3.40
2019-04-21T11:35:51.225Z,3.27
2019-04-21T11:38:29.995Z,3.30
2019-04-21T11:40:57.984Z,2.70
2019-04-21T11:43:27.301Z,2.53
2019-04-21T11:45:56.393Z,3.20
2019-04-21T11:48:30.257Z,3.07
2019-04-21T11:50:59.477Z,3.10
2019-04-21T11:53:28.792Z,3.30
2019-04-21T11:55:58.832Z,4.13
2019-04-21T11:58:28.137Z,2.90
2019-04-21T12:01:00.016Z,3.63
2019-04-21T12:03:29.810Z,3.90
2019-04-21T12:05:59.536Z,3.27
2019-04-21T12:08:36.233Z,2.87
2019-04-21T12:10:59.838Z,3.03
2019-04-21T12:13:30.044Z,3.00
2019-04-21T12:15:59.482Z,4.00
2019-04-21T12:18:30.124Z,3.30
2019-04-21T12:20:59.116Z,3.13
2019-04-21T12:23:28.079Z,2.53
2019-04-21T12:25:59.154Z,3.03
2019-04-21T12:28:28.184Z,2.30
2019-04-21T12:30:57.915Z,3.00
2019-04-21T12:33:45.828Z,2.80
2019-04-21T12:36:15.829Z,2.67
2019-04-21T12:38:52.363Z,2.53
2019-04-21T12:41:15.669Z,2.67
2019-04-21T12:43:44.657Z,2.80
2019-04-21T12:46:13.992Z,2.43
2019-04-21T12:48:44.140Z,2.93
2019-04-21T12:51:13.426Z,2.17
2019-04-21T12:53:43.481Z,4.33
2019-04-21T12:56:13.648Z,2.93
2019-04-21T12:58:43.513Z,2.57
2019-04-21T13:01:13.054Z,2.13
2019-04-21T13:03:42.122Z,2.50
2019-04-21T13:06:13.764Z,2.40
2019-04-21T13:08:53.344Z,2.80
2019-04-21T13:11:17.036Z,2.50
2019-04-21T13:13:48.068Z,3.03
2019-04-21T13:16:51.732Z,3.00
2019-04-21T13:19:15.714Z,2.37
2019-04-21T13:22:03.857Z,3.63
2019-04-21T13:24:42.081Z,3.27
2019-04-21T13:27:12.720Z,2.20
2019-04-21T13:29:44.667Z,6.57
2019-04-21T13:32:20.448Z,2.47
2019-04-21T13:34:59.399Z,3.00
2019-04-21T13:38:00.934Z,3.50
2019-04-21T13:40:57.033Z,3.00
2019-04-21T13:43:12.294Z,2.87
2019-04-21T13:45:45.790Z,4.37
2019-04-21T13:48:18.916Z,3.33
2019-04-21T13:51:09.020Z,2.80
2019-04-21T13:53:38.086Z,4.20
2019-04-21T13:56:08.777Z,3.23
2019-04-21T13:58:38.091Z,4.30
2019-04-21T14:01:07.760Z,3.13
2019-04-21T14:03:37.726Z,3.00
2019-04-21T14:06:08.538Z,3.47
2019-04-21T14:08:40.148Z,3.13
2019-04-21T14:11:09.553Z,2.73
2019-04-21T14:13:40.364Z,3.37
2019-04-21T14:16:09.780Z,2.63
2019-04-21T14:18:38.866Z,3.60
2019-04-21T14:21:09.123Z,3.73
2019-04-21T14:23:43.918Z,3.47
2019-04-21T14:26:09.121Z,3.00
2019-04-21T14:28:38.929Z,2.97
2019-04-21T14:31:08.280Z,3.07
2019-04-21T14:33:38.210Z,2.90
2019-04-21T14:36:08.630Z,3.10
2019-04-21T14:38:38.550Z,2.97
2019-04-21T14:41:08.328Z,5.53
2019-04-21T14:43:38.481Z,4.27
2019-04-21T14:46:33.247Z,3.00
2019-04-21T14:49:19.487Z,3.53
2019-04-21T14:52:01.097Z,3.40
2019-04-21T14:54:48.931Z,3.50
2019-04-21T14:57:18.897Z,3.23
2019-04-21T14:59:49.063Z,2.33
2019-04-21T15:02:18.217Z,2.87
2019-04-21T15:04:47.196Z,3.10
2019-04-21T15:07:17.111Z,3.57
2019-04-21T15:09:46.472Z,2.83
2019-04-21T15:12:16.222Z,3.13
2019-04-21T15:14:45.172Z,3.07
2019-04-21T15:17:16.290Z,3.40
2019-04-21T15:19:53.911Z,2.90
2019-04-21T15:22:16.454Z,2.90
2019-04-21T15:24:45.829Z,3.37
2019-04-21T15:27:14.878Z,3.30
2019-04-21T15:29:44.855Z,3.40
2019-04-21T15:32:14.894Z,3.00
2019-04-21T15:34:44.400Z,4.00
2019-04-21T15:37:13.775Z,3.00
2019-04-21T15:39:42.606Z,3.20
2019-04-21T15:42:12.606Z,4.50
2019-04-21T15:44:42.858Z,3.30
2019-04-21T15:47:11.721Z,3.23
2019-04-21T15:50:03.027Z,2.90
2019-04-21T15:52:27.932Z,3.40
2019-04-21T15:55:05.583Z,3.40
2019-04-21T15:57:52.281Z,3.00
2019-04-21T16:00:30.956Z,3.10
2019-04-21T16:03:00.420Z,3.43
2019-04-21T16:05:30.751Z,3.00
2019-04-21T16:08:00.309Z,3.40
2019-04-21T16:10:38.616Z,3.00
2019-04-21T16:12:59.656Z,3.07
2019-04-21T16:15:28.506Z,3.47
2019-04-21T16:17:57.340Z,3.43
2019-04-21T16:20:27.928Z,4.60
2019-04-21T16:22:56.923Z,3.17
2019-04-21T16:25:26.715Z,4.20
2019-04-21T16:27:57.168Z,6.87
2019-04-21T16:30:28.676Z,3.00
2019-04-21T16:32:59.841Z,3.80
2019-04-21T16:35:29.914Z,4.10
2019-04-21T16:38:01.230Z,3.90
2019-04-21T16:40:41.356Z,3.87
2019-04-21T16:43:00.553Z,4.33
2019-04-21T16:45:32.707Z,3.23
2019-04-21T16:48:03.400Z,3.70
2019-04-21T16:50:32.293Z,3.80
2019-04-21T16:53:10.291Z,3.47
2019-04-21T16:55:48.891Z,3.50
2019-04-21T16:58:28.727Z,3.60
2019-04-21T17:01:08.355Z,3.57
2019-04-21T17:03:34.591Z,3.20
2019-04-21T17:06:05.124Z,3.20
2019-04-21T17:08:34.718Z,5.13
2019-04-21T17:11:12.487Z,4.70
2019-04-21T17:13:38.307Z,5.60
2019-04-21T17:16:38.929Z,10.50
2019-04-21T17:18:51.451Z,7.80
2019-04-21T17:21:10.693Z,7.57
2019-04-21T17:23:40.718Z,9.00
2019-04-21T17:26:10.882Z,7.60
2019-04-21T17:28:40.619Z,8.10
2019-04-21T17:31:10.829Z,7.23
2019-04-21T17:33:41.407Z,7.03
2019-04-21T17:36:11.409Z,7.80
2019-04-21T17:38:41.780Z,8.90
2019-04-21T17:41:21.598Z,7.73
2019-04-21T17:43:41.662Z,8.27
2019-04-21T17:46:13.648Z,7.80
2019-04-21T17:48:41.169Z,6.93
2019-04-21T17:51:27.939Z,7.87
2019-04-21T17:54:13.537Z,7.03
2019-04-21T17:56:59.561Z,9.47
2019-04-21T17:59:43.237Z,7.50
2019-04-21T18:01:56.375Z,6.78
2019-04-21T18:04:28.506Z,6.37
2019-04-21T18:07:10.328Z,6.90
2019-04-21T18:09:52.012Z,8.83
2019-04-21T18:12:12.373Z,7.55
2019-04-21T18:14:28.565Z,7.00
2019-04-21T18:16:58.305Z,7.80
2019-04-21T18:19:31.235Z,8.25
2019-04-21T18:22:07.004Z,6.80
2019-04-21T18:24:47.672Z,8.58
2019-04-21T18:27:10.873Z,7.05
2019-04-21T18:29:38.458Z,6.78
2019-04-21T18:32:08.431Z,10.40
2019-04-21T18:35:00.394Z,10.88
2019-04-21T18:38:13.260Z,7.75
2019-04-21T18:40:37.686Z,7.67
2019-04-21T18:43:50.228Z,6.97
2019-04-21T18:46:25.856Z,9.38
2019-04-21T18:48:53.397Z,6.72
2019-04-21T18:51:35.964Z,7.97
2019-04-21T18:54:20.960Z,7.28
2019-04-21T18:56:29.691Z,9.35
2019-04-21T18:59:00.476Z,9.55
2019-04-21T19:01:34.404Z,7.15
2019-04-21T19:04:06.384Z,11.90
2019-04-21T19:06:46.852Z,7.45
2019-04-21T19:09:14.216Z,8.35
2019-04-21T19:11:51.847Z,8.33
2019-04-21T19:17:11.082Z,10.53
2019-04-21T19:22:00.606Z,8.85
2019-04-21T19:27:20.873Z,9.28
2019-04-21T19:29:53.974Z,11.70
2019-04-21T19:32:05.723Z,8.68
2019-04-21T19:34:37.808Z,7.70
2019-04-21T19:37:11.558Z,7.53
2019-04-21T19:39:50.819Z,7.62
2019-04-21T19:42:18.599Z,7.67
2019-04-21T19:44:52.205Z,10.08
2019-04-21T19:47:28.084Z,8.15
2019-04-21T19:50:01.809Z,8.98
2019-04-21T19:52:25.551Z,7.60
2019-04-21T19:54:45.344Z,6.00
2019-04-21T19:57:13.234Z,7.33
2019-04-21T19:59:48.043Z,9.28
2019-04-21T20:02:32.312Z,10.20
2019-04-21T20:05:06.985Z,10.05
2019-04-21T20:07:49.460Z,7.05
2019-04-21T20:10:26.975Z,8.98
2019-04-21T20:12:55.664Z,7.60
2019-04-21T20:15:31.784Z,9.30
2019-04-21T20:17:54.375Z,6.50
2019-04-21T20:20:09.360Z,7.90
2019-04-21T20:22:50.492Z,6.70
2019-04-21T20:25:20.973Z,7.33
2019-04-21T20:27:58.149Z,7.00
2019-04-21T20:30:40.773Z,7.42
2019-04-21T20:33:42.850Z,6.70
2019-04-21T20:38:15.616Z,8.30
2019-04-21T20:40:41.340Z,9.98
2019-04-21T20:43:26.952Z,6.85
2019-04-21T20:46:12.522Z,8.00
2019-04-21T20:48:42.112Z,8.73
2019-04-21T20:51:18.450Z,7.42
2019-04-21T20:53:46.562Z,8.50
2019-04-21T20:56:13.275Z,8.45
2019-04-21T20:58:53.739Z,9.15
2019-04-21T21:01:33.088Z,9.83
2019-04-21T21:03:51.551Z,10.00
2019-04-21T21:06:26.260Z,8.90
2019-04-21T21:08:56.810Z,9.28
2019-04-21T21:11:29.409Z,12.20
2019-04-21T21:14:05.724Z,10.10
2019-04-21T21:16:36.873Z,9.68
2019-04-21T21:19:13.383Z,6.58
2019-04-21T21:21:29.829Z,7.97
2019-04-21T21:24:05.571Z,10.18
2019-04-21T21:26:33.451Z,7.35
2019-04-21T21:28:58.861Z,8.20
2019-04-21T21:31:38.708Z,8.38
2019-04-21T21:34:11.888Z,7.70
2019-04-21T21:36:43.188Z,8.08
2019-04-21T21:39:11.461Z,8.53
2019-04-21T21:41:31.424Z,9.83
2019-04-21T21:44:01.851Z,7.42
2019-04-21T21:46:45.572Z,9.88
2019-04-21T21:49:06.324Z,8.18
2019-04-21T21:51:49.983Z,6.12
2019-04-21T21:54:00.937Z,6.75
2019-04-21T21:56:30.018Z,10.15
2019-04-21T21:59:01.295Z,8.03
2019-04-21T22:01:38.070Z,7.53
2019-04-21T22:04:10.419Z,7.50
2019-04-21T22:06:42.075Z,7.33
2019-04-21T22:09:03.875Z,6.95
2019-04-21T22:11:33.854Z,8.80
2019-04-21T22:14:07.907Z,6.70
2019-04-21T22:16:43.201Z,8.85
2019-04-21T22:19:18.875Z,6.47
2019-04-21T22:21:53.632Z,6.70
2019-04-21T22:24:20.344Z,6.97
2019-04-21T22:26:37.069Z,6.80
2019-04-21T22:29:07.633Z,10.90
2019-04-21T22:31:39.231Z,5.95
2019-04-21T22:34:11.152Z,5.90
2019-04-21T22:36:48.804Z,8.98
2019-04-21T22:39:31.703Z,6.58
2019-04-21T22:41:44.993Z,7.42
2019-04-21T22:44:16.789Z,6.35
2019-04-21T22:46:58.639Z,6.65
2019-04-21T22:49:18.291Z,7.40
2019-04-21T22:51:51.346Z,7.05
2019-04-21T22:54:20.774Z,6.10
2019-04-21T22:56:58.644Z,6.72
2019-04-21T22:59:22.158Z,7.70
2019-04-21T23:01:51.913Z,6.20
2019-04-21T23:04:20.987Z,6.37
2019-04-21T23:06:59.208Z,6.28
2019-04-21T23:09:20.532Z,5.60
2019-04-21T23:11:51.435Z,6.25
2019-04-21T23:14:21.446Z,7.25
2019-04-21T23:16:54.094Z,5.30
2019-04-21T23:19:37.653Z,8.45
2019-04-21T23:22:09.543Z,8.00
2019-04-21T23:24:50.005Z,6.60
2019-04-21T23:27:06.369Z,6.15
2019-04-21T23:29:55.780Z,6.20
2019-04-21T23:32:08.394Z,6.35
2019-04-21T23:34:30.587Z,9.53
2019-04-21T23:37:05.764Z,6.22
2019-04-21T23:39:31.880Z,5.60
2019-04-21T23:41:59.251Z,6.47
2019-04-21T23:44:28.152Z,6.30
2019-04-21T23:47:02.740Z,7.58
2019-04-21T23:49:40.508Z,6.85
2019-04-21T23:52:03.003Z,7.15
2019-04-21T23:54:31.848Z,7.67
2019-04-21T23:57:05.118Z,7.30
2019-04-21T23:59:38.684Z,7.10
